createdAt,value
2022-12-11T00:01:12.812Z,15.40
2022-12-11T00:03:40.018Z,15.83
2022-12-11T00:06:11.393Z,15.57
2022-12-11T00:08:38.471Z,16.87
2022-12-11T00:11:05.821Z,15.30
2022-12-11T00:13:32.809Z,15.03
2022-12-11T00:15:59.770Z,15.10
2022-12-11T00:18:26.704Z,15.50
2022-12-11T00:20:53.495Z,14.20
2022-12-11T00:23:20.307Z,14.57
2022-12-11T00:25:48.144Z,13.20
2022-12-11T00:28:16.135Z,14.53
2022-12-11T00:30:43.378Z,13.73
2022-12-11T00:33:11.130Z,14.73
2022-12-11T00:35:42.390Z,15.70
2022-12-11T00:38:09.474Z,15.93
2022-12-11T00:40:36.873Z,16.03
2022-12-11T00:43:04.161Z,15.10
2022-12-11T00:45:31.135Z,14.73
2022-12-11T00:47:58.036Z,15.73
2022-12-11T00:50:24.931Z,15.37
2022-12-11T00:52:51.736Z,14.57
2022-12-11T00:55:18.555Z,14.77
2022-12-11T00:57:45.423Z,16.30
2022-12-11T01:00:13.026Z,14.20
2022-12-11T01:02:39.925Z,16.87
2022-12-11T01:05:06.897Z,15.83
2022-12-11T01:07:33.696Z,16.47
2022-12-11T01:10:19.094Z,14.80
2022-12-11T01:12:46.004Z,14.87
2022-12-11T01:15:13.137Z,16.13
2022-12-11T01:17:40.255Z,16.33
2022-12-11T01:20:07.235Z,16.10
2022-12-11T01:22:34.075Z,14.90
2022-12-11T01:25:00.850Z,14.77
2022-12-11T01:27:28.071Z,15.67
2022-12-11T01:29:54.799Z,15.23
2022-12-11T01:32:21.610Z,15.13
2022-12-11T01:34:48.639Z,14.80
2022-12-11T01:37:15.664Z,14.83
2022-12-11T01:39:42.580Z,14.53
2022-12-11T01:42:14.534Z,12.50
2022-12-11T01:44:41.408Z,12.90
2022-12-11T01:47:08.187Z,12.40
2022-12-11T01:49:35.137Z,12.87
2022-12-11T01:52:01.926Z,11.10
2022-12-11T01:54:29.630Z,13.20
2022-12-11T01:56:58.795Z,14.00
2022-12-11T01:59:27.163Z,13.13
2022-12-11T02:01:54.329Z,13.43
2022-12-11T02:04:21.229Z,14.63
2022-12-11T02:06:48.832Z,17.17
2022-12-11T02:09:17.476Z,14.90
2022-12-11T02:11:56.680Z,14.87
2022-12-11T02:14:26.443Z,15.33
2022-12-11T02:16:58.572Z,16.40
2022-12-11T02:19:28.534Z,15.27
2022-12-11T02:21:56.545Z,18.17
2022-12-11T02:24:26.272Z,16.73
2022-12-11T02:27:28.775Z,19.10
2022-12-11T02:30:01.660Z,20.93
2022-12-11T02:32:38.194Z,19.33
2022-12-11T02:35:09.840Z,21.33
2022-12-11T02:37:38.065Z,19.10
2022-12-11T02:40:07.816Z,18.27
2022-12-11T02:42:36.435Z,18.47
2022-12-11T02:45:04.574Z,17.83
2022-12-11T02:47:32.559Z,17.97
2022-12-11T02:50:01.562Z,17.73
2022-12-11T02:52:30.577Z,15.73
2022-12-11T02:54:58.503Z,19.10
2022-12-11T02:57:31.593Z,17.27
2022-12-11T02:59:59.053Z,15.57
2022-12-11T03:02:25.974Z,17.37
2022-12-11T03:04:52.986Z,16.17
2022-12-11T03:07:23.502Z,18.90
2022-12-11T03:09:50.935Z,19.07
2022-12-11T03:12:24.518Z,18.53
2022-12-11T03:14:51.762Z,18.63
2022-12-11T03:17:20.102Z,22.77
2022-12-11T03:20:00.707Z,25.60
2022-12-11T03:22:30.441Z,22.97
2022-12-11T03:25:08.004Z,26.83
2022-12-11T03:27:38.718Z,27.83
2022-12-11T03:30:14.453Z,27.23
2022-12-11T03:32:46.289Z,24.20
2022-12-11T03:35:25.058Z,21.73
2022-12-11T03:37:52.506Z,24.47
2022-12-11T03:40:21.072Z,29.20
2022-12-11T03:42:50.711Z,21.20
2022-12-11T03:45:19.244Z,24.23
2022-12-11T03:47:47.524Z,23.47
2022-12-11T03:50:15.740Z,23.03
2022-12-11T03:52:46.056Z,23.23
2022-12-11T03:55:14.095Z,22.00
2022-12-11T03:57:40.945Z,22.83
2022-12-11T04:00:09.751Z,22.53
2022-12-11T04:02:40.121Z,25.47
2022-12-11T04:05:07.372Z,22.00
2022-12-11T04:07:34.310Z,24.13
2022-12-11T04:10:01.254Z,22.07
2022-12-11T04:12:28.539Z,21.90
2022-12-11T04:15:04.323Z,24.07
2022-12-11T04:17:51.397Z,24.97
2022-12-11T04:20:36.572Z,22.97
2022-12-11T04:23:23.064Z,22.80
2022-12-11T04:25:50.111Z,24.83
2022-12-11T04:28:17.071Z,23.83
2022-12-11T04:30:48.423Z,20.97
2022-12-11T04:33:15.402Z,19.20
2022-12-11T04:35:42.156Z,18.27
2022-12-11T04:38:09.030Z,21.40
2022-12-11T04:40:35.895Z,20.63
2022-12-11T04:43:02.685Z,22.40
2022-12-11T04:45:29.660Z,23.70
2022-12-11T04:47:56.390Z,20.80
2022-12-11T04:50:23.447Z,25.97
2022-12-11T04:52:50.480Z,24.80
2022-12-11T04:55:17.308Z,24.23
2022-12-11T04:57:44.136Z,24.20
2022-12-11T05:00:12.071Z,24.87
2022-12-11T05:02:39.273Z,22.93
2022-12-11T05:05:06.970Z,25.63
2022-12-11T05:07:33.857Z,21.07
2022-12-11T05:10:00.662Z,22.90
2022-12-11T05:12:27.659Z,23.50
2022-12-11T05:14:55.008Z,23.63
2022-12-11T05:17:22.288Z,24.63
2022-12-11T05:19:50.014Z,22.70
2022-12-11T05:22:18.226Z,25.60
2022-12-11T05:24:45.608Z,29.57
2022-12-11T05:27:12.567Z,29.87
2022-12-11T05:29:39.520Z,26.00
2022-12-11T05:32:06.944Z,25.60
2022-12-11T05:34:33.797Z,25.40
2022-12-11T05:37:00.635Z,26.20
2022-12-11T05:39:27.551Z,28.30
2022-12-11T05:41:54.303Z,28.23
2022-12-11T05:44:21.545Z,27.00
2022-12-11T05:46:48.400Z,25.57
2022-12-11T05:49:19.627Z,29.73
2022-12-11T05:51:46.828Z,28.77
2022-12-11T05:54:14.234Z,29.93
2022-12-11T05:56:41.164Z,25.07
2022-12-11T05:59:07.988Z,29.33
2022-12-11T06:01:36.562Z,28.33
2022-12-11T06:04:04.175Z,28.80
2022-12-11T06:06:31.156Z,25.83
2022-12-11T06:08:58.574Z,26.93
2022-12-11T06:11:26.106Z,25.40
2022-12-11T06:13:53.364Z,26.97
2022-12-11T06:16:20.871Z,26.83
2022-12-11T06:18:48.309Z,25.87
2022-12-11T06:21:25.351Z,26.13
2022-12-11T06:23:54.343Z,25.57
2022-12-11T06:26:21.808Z,29.43
2022-12-11T06:28:49.051Z,24.87
2022-12-11T06:31:16.328Z,26.20
2022-12-11T06:33:43.542Z,25.40
2022-12-11T06:36:17.612Z,23.20
2022-12-11T06:38:45.349Z,24.00
2022-12-11T06:41:12.236Z,25.60
2022-12-11T06:43:40.312Z,23.73
2022-12-11T06:46:08.030Z,22.97
2022-12-11T06:48:35.411Z,23.67
2022-12-11T06:51:06.035Z,23.83
2022-12-11T06:53:33.024Z,23.00
2022-12-11T06:56:07.081Z,23.87
2022-12-11T06:58:34.587Z,21.77
2022-12-11T07:01:02.344Z,23.67
2022-12-11T07:03:29.260Z,21.73
2022-12-11T07:06:00.279Z,25.13
2022-12-11T07:08:28.168Z,28.00
2022-12-11T07:10:55.089Z,25.90
2022-12-11T07:13:21.903Z,27.80
2022-12-11T07:15:48.852Z,26.33
2022-12-11T07:18:15.731Z,23.83
2022-12-11T07:20:43.055Z,24.37
2022-12-11T07:23:09.960Z,22.63
2022-12-11T07:25:37.266Z,23.70
2022-12-11T07:28:04.208Z,22.37
2022-12-11T07:30:30.988Z,21.97
2022-12-11T07:32:57.927Z,23.40
2022-12-11T07:35:25.484Z,24.53
2022-12-11T07:37:52.483Z,24.83
2022-12-11T07:40:19.848Z,24.40
2022-12-11T07:42:46.755Z,26.03
2022-12-11T07:45:13.815Z,25.30
2022-12-11T07:47:40.884Z,23.13
2022-12-11T07:50:07.751Z,25.10
2022-12-11T07:52:35.056Z,24.03
2022-12-11T07:55:02.176Z,29.67
2022-12-11T07:57:29.485Z,30.50
2022-12-11T07:59:56.238Z,31.40
2022-12-11T08:02:23.304Z,29.73
2022-12-11T08:04:50.519Z,31.30
2022-12-11T08:07:17.427Z,30.90
2022-12-11T08:09:44.354Z,32.63
2022-12-11T08:12:12.165Z,28.67
2022-12-11T08:14:39.022Z,31.67
2022-12-11T08:17:06.105Z,46.60
2022-12-11T08:19:32.953Z,32.87
2022-12-11T08:21:59.837Z,34.13
2022-12-11T08:24:27.845Z,34.80
2022-12-11T08:26:54.688Z,34.37
2022-12-11T08:29:21.610Z,34.60
2022-12-11T08:31:48.426Z,33.07
2022-12-11T08:34:15.495Z,35.27
2022-12-11T08:36:42.354Z,32.47
2022-12-11T08:39:09.276Z,32.63
2022-12-11T08:41:36.291Z,36.07
2022-12-11T08:44:05.935Z,32.13
2022-12-11T08:46:33.166Z,30.97
2022-12-11T08:49:00.221Z,29.97
2022-12-11T08:51:28.344Z,26.43
2022-12-11T08:53:56.387Z,27.30
2022-12-11T08:56:23.928Z,29.37
2022-12-11T08:58:51.229Z,29.77
2022-12-11T09:01:22.437Z,26.90
2022-12-11T09:03:50.161Z,28.20
2022-12-11T09:06:18.171Z,29.53
2022-12-11T09:08:51.733Z,26.43
2022-12-11T09:11:21.090Z,27.37
2022-12-11T09:13:48.230Z,28.50
2022-12-11T09:16:16.372Z,25.63
2022-12-11T09:18:45.109Z,28.57
2022-12-11T09:21:16.600Z,27.97
2022-12-11T09:23:43.786Z,26.40
2022-12-11T09:26:11.917Z,27.50
2022-12-11T09:28:45.739Z,26.47
2022-12-11T09:31:18.323Z,26.13
2022-12-11T09:33:45.788Z,26.80
2022-12-11T09:36:13.074Z,24.23
2022-12-11T09:38:40.296Z,24.13
2022-12-11T09:41:22.586Z,25.47
2022-12-11T09:43:55.294Z,18.43
2022-12-11T09:46:24.713Z,18.30
2022-12-11T09:48:53.886Z,16.47
2022-12-11T09:51:27.263Z,16.83
2022-12-11T09:53:55.518Z,16.20
2022-12-11T09:56:25.763Z,17.13
2022-12-11T09:58:52.557Z,16.30
2022-12-11T10:01:27.236Z,16.37
2022-12-11T10:04:10.824Z,17.63
2022-12-11T10:06:42.213Z,16.53
2022-12-11T10:09:12.250Z,17.03
2022-12-11T10:11:57.748Z,15.90
2022-12-11T10:14:42.168Z,18.67
2022-12-11T10:17:41.992Z,16.33
2022-12-11T10:20:14.562Z,15.10
2022-12-11T10:22:41.620Z,16.30
2022-12-11T10:25:13.999Z,17.77
2022-12-11T10:27:41.285Z,15.07
2022-12-11T10:30:08.082Z,18.23
2022-12-11T10:32:53.518Z,18.90
2022-12-11T10:35:27.416Z,16.03
2022-12-11T10:37:57.023Z,16.57
2022-12-11T10:40:25.529Z,16.50
2022-12-11T10:42:53.643Z,17.00
2022-12-11T10:45:20.803Z,17.30
2022-12-11T10:47:47.560Z,16.40
2022-12-11T10:50:25.194Z,16.80
2022-12-11T10:52:53.024Z,17.07
2022-12-11T10:55:19.798Z,16.93
2022-12-11T10:57:47.348Z,17.20
2022-12-11T11:00:29.400Z,16.00
2022-12-11T11:02:56.348Z,17.30
2022-12-11T11:05:31.219Z,17.10
2022-12-11T11:08:19.340Z,17.97
2022-12-11T11:10:52.375Z,18.23
2022-12-11T11:13:20.849Z,17.40
2022-12-11T11:15:47.814Z,15.60
2022-12-11T11:18:25.543Z,16.23
2022-12-11T11:20:52.579Z,15.83
2022-12-11T11:23:21.903Z,17.17
2022-12-11T11:25:56.737Z,13.73
2022-12-11T11:28:28.689Z,21.97
2022-12-11T11:30:58.384Z,23.20
2022-12-11T11:33:25.750Z,21.23
2022-12-11T11:35:54.499Z,22.33
2022-12-11T11:38:22.836Z,23.30
2022-12-11T11:41:14.753Z,26.97
2022-12-11T11:43:44.853Z,22.93
2022-12-11T11:46:11.812Z,24.63
2022-12-11T11:48:49.897Z,24.97
2022-12-11T11:51:36.661Z,26.57
2022-12-11T11:54:09.090Z,25.30
2022-12-11T11:56:37.755Z,26.07
2022-12-11T11:59:22.351Z,28.07
2022-12-11T12:01:49.850Z,25.43
2022-12-11T12:04:16.791Z,25.07
2022-12-11T12:06:58.861Z,24.50
2022-12-11T12:09:25.967Z,24.87
2022-12-11T12:12:20.945Z,23.93
2022-12-11T12:15:07.008Z,27.33
2022-12-11T12:17:38.339Z,24.23
2022-12-11T12:20:05.647Z,26.40
2022-12-11T12:22:35.475Z,27.43
2022-12-11T12:25:20.665Z,26.07
2022-12-11T12:28:05.741Z,23.70
2022-12-11T12:30:38.629Z,25.83
2022-12-11T12:33:24.871Z,25.10
2022-12-11T12:35:54.533Z,24.60
2022-12-11T12:38:35.095Z,23.87
2022-12-11T12:41:15.799Z,27.03
2022-12-11T12:44:02.771Z,25.83
2022-12-11T12:46:29.565Z,25.87
2022-12-11T12:48:57.387Z,27.30
2022-12-11T12:51:25.408Z,28.23
2022-12-11T12:54:00.538Z,26.40
2022-12-11T12:56:29.338Z,33.83
2022-12-11T12:58:56.175Z,29.37
2022-12-11T13:01:24.709Z,26.60
2022-12-11T13:04:02.429Z,24.83
2022-12-11T13:06:29.457Z,24.73
2022-12-11T13:08:56.597Z,29.50
2022-12-11T13:11:31.707Z,24.80
2022-12-11T13:14:08.800Z,27.30
2022-12-11T13:16:43.721Z,24.43
2022-12-11T13:19:42.351Z,23.30
2022-12-11T13:22:15.567Z,24.23
2022-12-11T13:24:50.335Z,24.23
2022-12-11T13:27:32.434Z,19.10
2022-12-11T13:30:06.401Z,20.57
2022-12-11T13:32:33.573Z,22.03
2022-12-11T13:35:04.300Z,20.90
2022-12-11T13:37:41.420Z,21.37
2022-12-11T13:40:22.374Z,19.77
2022-12-11T13:42:50.707Z,20.37
2022-12-11T13:45:23.543Z,20.30
2022-12-11T13:47:50.476Z,20.00
2022-12-11T13:50:37.519Z,21.37
2022-12-11T13:53:05.518Z,18.33
2022-12-11T13:55:34.167Z,20.77
2022-12-11T13:58:01.248Z,19.73
2022-12-11T14:00:30.583Z,18.17
2022-12-11T14:02:59.381Z,21.77
2022-12-11T14:05:26.348Z,19.67
2022-12-11T14:07:54.899Z,20.90
2022-12-11T14:10:26.211Z,21.40
2022-12-11T14:13:06.524Z,19.60
2022-12-11T14:15:35.015Z,20.47
2022-12-11T14:18:01.983Z,19.70
2022-12-11T14:20:33.257Z,19.10
2022-12-11T14:23:06.239Z,20.07
2022-12-11T14:25:33.055Z,26.07
2022-12-11T14:28:01.957Z,22.87
2022-12-11T14:30:30.065Z,29.40
2022-12-11T14:32:58.223Z,22.53
2022-12-11T14:35:34.184Z,29.37
2022-12-11T14:38:09.248Z,26.63
2022-12-11T14:40:38.530Z,37.17
2022-12-11T14:43:09.662Z,22.20
2022-12-11T14:45:36.543Z,27.20
2022-12-11T14:48:07.521Z,37.53
2022-12-11T14:50:44.091Z,29.33
2022-12-11T14:53:14.191Z,27.53
2022-12-11T14:55:41.437Z,28.43
2022-12-11T14:58:22.496Z,22.17
2022-12-11T15:00:58.434Z,27.30
2022-12-11T15:03:30.331Z,23.53
2022-12-11T15:05:58.130Z,21.37
2022-12-11T15:08:30.514Z,19.57
2022-12-11T15:11:08.611Z,21.20
2022-12-11T15:13:37.674Z,20.80
2022-12-11T15:16:06.611Z,20.53
2022-12-11T15:18:36.455Z,21.13
2022-12-11T15:21:07.126Z,22.23
2022-12-11T15:23:38.542Z,24.33
2022-12-11T15:26:05.443Z,23.43
2022-12-11T15:28:33.628Z,23.17
2022-12-11T15:31:02.211Z,23.67
2022-12-11T15:33:34.359Z,24.57
2022-12-11T15:36:01.909Z,24.23
2022-12-11T15:38:30.260Z,26.47
2022-12-11T15:40:57.592Z,31.50
2022-12-11T15:43:25.057Z,30.30
2022-12-11T15:45:51.961Z,24.07
2022-12-11T15:48:19.015Z,24.33
2022-12-11T15:50:45.991Z,25.30
2022-12-11T15:53:12.934Z,25.57
2022-12-11T15:55:40.013Z,22.67
2022-12-11T15:58:09.688Z,28.10
2022-12-11T16:00:36.792Z,24.73
2022-12-11T16:03:03.734Z,20.83
2022-12-11T16:05:30.698Z,23.27
2022-12-11T16:08:00.543Z,49.63
2022-12-11T16:10:27.463Z,27.20
2022-12-11T16:12:59.608Z,23.27
2022-12-11T16:15:27.558Z,43.67
2022-12-11T16:18:09.409Z,26.77
2022-12-11T16:20:37.197Z,26.20
2022-12-11T16:23:04.447Z,26.63
2022-12-11T16:25:32.858Z,27.87
2022-12-11T16:28:01.262Z,29.43
2022-12-11T16:30:29.367Z,46.70
2022-12-11T16:32:56.447Z,26.20
2022-12-11T16:35:23.422Z,26.20
2022-12-11T16:37:51.459Z,26.37
2022-12-11T16:40:18.694Z,24.37
2022-12-11T16:42:45.875Z,23.13
2022-12-11T16:45:14.435Z,24.43
2022-12-11T16:47:41.434Z,22.43
2022-12-11T16:50:08.777Z,24.80
2022-12-11T16:52:36.045Z,22.97
2022-12-11T16:55:02.928Z,24.10
2022-12-11T16:57:29.947Z,24.57
2022-12-11T16:59:57.133Z,22.60
2022-12-11T17:02:23.936Z,23.87
2022-12-11T17:04:54.019Z,21.07
2022-12-11T17:07:21.180Z,24.77
2022-12-11T17:09:47.979Z,23.67
2022-12-11T17:12:15.055Z,21.40
2022-12-11T17:14:41.948Z,23.33
2022-12-11T17:17:09.543Z,23.73
2022-12-11T17:19:36.652Z,24.93
2022-12-11T17:22:04.737Z,21.07
2022-12-11T17:24:31.732Z,20.70
2022-12-11T17:26:59.934Z,22.67
2022-12-11T17:29:26.849Z,21.93
2022-12-11T17:31:53.846Z,21.17
2022-12-11T17:34:20.605Z,18.97
2022-12-11T17:36:47.497Z,22.33
2022-12-11T17:39:14.295Z,19.13
2022-12-11T17:41:41.333Z,23.37
2022-12-11T17:44:09.763Z,29.60
2022-12-11T17:46:36.852Z,38.53
2022-12-11T17:49:04.573Z,30.20
2022-12-11T17:51:31.669Z,20.83
2022-12-11T17:53:58.655Z,23.03
2022-12-11T17:56:25.913Z,20.10
2022-12-11T17:58:52.731Z,20.37
2022-12-11T18:01:19.977Z,20.90
2022-12-11T18:03:47.454Z,23.13
2022-12-11T18:06:15.672Z,20.07
2022-12-11T18:08:43.204Z,24.60
2022-12-11T18:11:11.864Z,19.53
2022-12-11T18:13:39.493Z,21.80
2022-12-11T18:16:26.764Z,21.73
2022-12-11T18:18:54.350Z,20.90
2022-12-11T18:21:22.807Z,19.30
2022-12-11T18:23:52.673Z,19.47
2022-12-11T18:26:19.909Z,20.57
2022-12-11T18:28:47.648Z,19.90
2022-12-11T18:31:14.990Z,22.93
2022-12-11T18:33:43.045Z,18.57
2022-12-11T18:36:10.560Z,19.37
2022-12-11T18:38:37.455Z,20.43
2022-12-11T18:41:05.113Z,22.43
2022-12-11T18:43:32.596Z,20.20
2022-12-11T18:45:59.932Z,20.23
2022-12-11T18:48:28.254Z,21.57
2022-12-11T18:50:55.643Z,20.80
2022-12-11T18:53:23.123Z,20.77
2022-12-11T18:55:50.171Z,22.80
2022-12-11T18:58:18.250Z,19.67
2022-12-11T19:00:45.457Z,24.37
2022-12-11T19:03:13.923Z,22.80
2022-12-11T19:05:43.299Z,19.47
2022-12-11T19:08:12.115Z,21.13
2022-12-11T19:10:44.051Z,22.50
2022-12-11T19:13:12.333Z,26.07
2022-12-11T19:15:43.810Z,20.17
2022-12-11T19:18:12.028Z,20.17
2022-12-11T19:20:49.338Z,18.77
2022-12-11T19:23:18.320Z,22.50
2022-12-11T19:25:46.789Z,22.40
2022-12-11T19:28:14.753Z,18.93
2022-12-11T19:30:42.445Z,19.00
2022-12-11T19:33:10.107Z,21.23
2022-12-11T19:35:37.773Z,26.10
2022-12-11T19:38:05.313Z,23.90
2022-12-11T19:40:32.623Z,22.60
2022-12-11T19:42:59.790Z,22.13
2022-12-11T19:45:27.194Z,22.20
2022-12-11T19:47:54.073Z,21.63
2022-12-11T19:50:20.872Z,20.70
2022-12-11T19:52:47.763Z,21.47
2022-12-11T19:55:15.308Z,20.20
2022-12-11T19:57:42.168Z,20.60
2022-12-11T20:00:09.212Z,18.47
2022-12-11T20:02:39.044Z,17.87
2022-12-11T20:05:06.197Z,19.70
2022-12-11T20:07:33.660Z,19.27
2022-12-11T20:10:01.059Z,17.47
2022-12-11T20:12:28.700Z,18.40
2022-12-11T20:14:55.574Z,19.00
2022-12-11T20:17:22.539Z,19.27
2022-12-11T20:19:50.254Z,18.43
2022-12-11T20:22:17.134Z,17.67
2022-12-11T20:24:43.946Z,17.93
2022-12-11T20:27:12.849Z,17.43
2022-12-11T20:29:39.924Z,19.90
2022-12-11T20:32:11.586Z,17.13
2022-12-11T20:34:38.710Z,16.53
2022-12-11T20:37:06.459Z,17.27
2022-12-11T20:39:33.924Z,16.77
2022-12-11T20:42:04.899Z,17.10
2022-12-11T20:44:32.600Z,18.67
2022-12-11T20:47:00.252Z,18.90
2022-12-11T20:49:27.837Z,18.13
2022-12-11T20:51:55.609Z,19.00
2022-12-11T20:54:22.864Z,17.83
2022-12-11T20:56:50.002Z,17.33
2022-12-11T20:59:16.881Z,18.77
2022-12-11T21:01:44.556Z,20.83
2022-12-11T21:04:12.379Z,18.67
2022-12-11T21:06:40.722Z,17.97
2022-12-11T21:09:15.745Z,18.10
2022-12-11T21:11:42.658Z,17.93
2022-12-11T21:14:09.796Z,18.10
2022-12-11T21:16:37.310Z,20.50
2022-12-11T21:19:05.256Z,22.97
2022-12-11T21:21:32.857Z,19.93
2022-12-11T21:23:59.858Z,18.87
2022-12-11T21:26:26.620Z,23.63
2022-12-11T21:28:53.558Z,19.47
2022-12-11T21:31:21.046Z,21.10
2022-12-11T21:33:48.216Z,21.23
2022-12-11T21:36:15.737Z,21.00
2022-12-11T21:38:44.237Z,20.37
2022-12-11T21:41:13.793Z,19.83
2022-12-11T21:44:03.265Z,20.30
2022-12-11T21:46:29.209Z,22.47
2022-12-11T21:48:56.264Z,20.87
2022-12-11T21:51:34.105Z,21.20
2022-12-11T21:54:04.700Z,20.10
2022-12-11T21:56:32.184Z,20.67
2022-12-11T21:58:59.029Z,21.47
2022-12-11T22:01:29.254Z,19.70
2022-12-11T22:03:57.162Z,19.43
2022-12-11T22:06:24.263Z,23.43
2022-12-11T22:08:51.100Z,22.10
2022-12-11T22:11:19.271Z,23.87
2022-12-11T22:13:46.104Z,21.37
2022-12-11T22:16:13.631Z,21.93
2022-12-11T22:18:40.652Z,20.90
2022-12-11T22:21:07.503Z,22.17
2022-12-11T22:23:34.457Z,22.37
2022-12-11T22:26:01.342Z,23.43
2022-12-11T22:28:28.423Z,24.07
2022-12-11T22:30:55.205Z,23.80
2022-12-11T22:33:22.092Z,23.37
2022-12-11T22:35:55.236Z,23.33
2022-12-11T22:38:22.146Z,23.00
2022-12-11T22:40:48.904Z,24.43
2022-12-11T22:43:15.815Z,23.80
2022-12-11T22:45:42.641Z,23.97
2022-12-11T22:48:10.194Z,24.80
2022-12-11T22:50:37.926Z,22.70
2022-12-11T22:53:05.418Z,24.23
2022-12-11T22:55:34.368Z,22.40
2022-12-11T22:58:01.109Z,24.10
2022-12-11T23:00:28.037Z,23.67
2022-12-11T23:02:54.923Z,24.80
2022-12-11T23:05:21.918Z,23.03
2022-12-11T23:07:49.023Z,25.77
2022-12-11T23:10:15.862Z,22.00
2022-12-11T23:12:43.001Z,27.70
2022-12-11T23:15:11.296Z,24.20
2022-12-11T23:17:38.234Z,26.83
2022-12-11T23:20:05.981Z,23.87
2022-12-11T23:22:33.174Z,21.20
2022-12-11T23:24:59.931Z,20.57
2022-12-11T23:27:27.091Z,23.90
2022-12-11T23:29:53.878Z,20.90
2022-12-11T23:32:21.410Z,22.30
2022-12-11T23:34:48.282Z,23.43
2022-12-11T23:37:15.645Z,23.57
2022-12-11T23:39:42.585Z,24.43
2022-12-11T23:42:09.599Z,21.90
2022-12-11T23:44:36.880Z,21.43
2022-12-11T23:47:03.854Z,24.13
2022-12-11T23:49:30.687Z,20.50
2022-12-11T23:51:57.511Z,24.10
2022-12-11T23:54:24.613Z,21.23
2022-12-11T23:56:51.490Z,18.07
2022-12-11T23:59:18.312Z,20.23
